Alkabo, North Dakota
Current Conditions -  °F | °C
As of 11:52 PM on Wednesday 28 Jan 2015 (Local Time) from KISN Reporting Station
Overcast Overcast  
Wind Chill: 20°   Ceiling: 2100
Heat Index: 31°   Visibility: 10mi
Dew Point: 26°   Wind: 15mph
Humidity: 82%   Direction: 340°NNW
Pressure: 30.34"   Gusts: 21mph
Location:  48.5901°N, 103.922°W
Report Text: KISN 290552Z AUTO 34013G18KT 10SM FEW015 OVC021 M01/M03 A3034 RMK AO2 SLP300 T10061033 10011 21006 400221022 53029
Loading
Personal Weather Stations






























Interactive Weather Map New forecast layout! Learn more

10-Day Weather Forecast

Advertisements
Track Severe Weather on mobile